sensor_id;sensor_type;location;lat;lon;timestamp;P1;durP1;ratioP1;P2;durP2;ratioP2
65535;SDS011;52145;49.342;9.116;2023-06-22T00:01:03;9.40;;;5.25;;
65535;SDS011;52145;49.342;9.116;2023-06-22T00:03:30;11.93;;;6.65;;
65535;SDS011;52145;49.342;9.116;2023-06-22T00:05:56;7.72;;;5.55;;
65535;SDS011;52145;49.342;9.116;2023-06-22T00:08:22;7.95;;;5.45;;
65535;SDS011;52145;49.342;9.116;2023-06-22T00:10:48;9.32;;;5.38;;
65535;SDS011;52145;49.342;9.116;2023-06-22T00:13:14;11.05;;;5.90;;
65535;SDS011;52145;49.342;9.116;2023-06-22T00:15:41;7.20;;;5.43;;
65535;SDS011;52145;49.342;9.116;2023-06-22T00:18:07;10.25;;;6.18;;
65535;SDS011;52145;49.342;9.116;2023-06-22T00:20:33;9.90;;;6.10;;
65535;SDS011;52145;49.342;9.116;2023-06-22T00:23:02;9.93;;;5.72;;
65535;SDS011;52145;49.342;9.116;2023-06-22T00:25:33;8.75;;;5.78;;
65535;SDS011;52145;49.342;9.116;2023-06-22T00:27:58;9.25;;;5.65;;
65535;SDS011;52145;49.342;9.116;2023-06-22T00:30:24;8.93;;;6.30;;
65535;SDS011;52145;49.342;9.116;2023-06-22T00:32:50;8.45;;;5.45;;
65535;SDS011;52145;49.342;9.116;2023-06-22T00:35:16;9.77;;;5.30;;
65535;SDS011;52145;49.342;9.116;2023-06-22T00:37:42;8.35;;;5.60;;
65535;SDS011;52145;49.342;9.116;2023-06-22T00:40:09;7.50;;;5.45;;
65535;SDS011;52145;49.342;9.116;2023-06-22T00:42:39;7.57;;;5.35;;
65535;SDS011;52145;49.342;9.116;2023-06-22T00:45:06;9.15;;;5.47;;
65535;SDS011;52145;49.342;9.116;2023-06-22T00:47:33;10.55;;;5.72;;
65535;SDS011;52145;49.342;9.116;2023-06-22T00:49:59;6.78;;;5.43;;
65535;SDS011;52145;49.342;9.116;2023-06-22T00:52:25;7.65;;;5.60;;
65535;SDS011;52145;49.342;9.116;2023-06-22T00:54:54;8.20;;;5.57;;
65535;SDS011;52145;49.342;9.116;2023-06-22T00:57:21;10.15;;;6.45;;
65535;SDS011;52145;49.342;9.116;2023-06-22T00:59:47;9.15;;;6.25;;
65535;SDS011;52145;49.342;9.116;2023-06-22T01:02:14;10.70;;;6.60;;
65535;SDS011;52145;49.342;9.116;2023-06-22T01:04:40;12.85;;;5.90;;
65535;SDS011;52145;49.342;9.116;2023-06-22T01:07:10;10.73;;;6.28;;
65535;SDS011;52145;49.342;9.116;2023-06-22T01:09:40;10.15;;;5.60;;
65535;SDS011;52145;49.342;9.116;2023-06-22T01:12:08;10.65;;;5.97;;
65535;SDS011;52145;49.342;9.116;2023-06-22T01:14:42;10.02;;;5.80;;
65535;SDS011;52145;49.342;9.116;2023-06-22T01:17:09;9.05;;;5.47;;
65535;SDS011;52145;49.342;9.116;2023-06-22T01:19:47;7.38;;;5.00;;
65535;SDS011;52145;49.342;9.116;2023-06-22T01:22:21;13.73;;;5.70;;
65535;SDS011;52145;49.342;9.116;2023-06-22T01:24:51;9.15;;;5.90;;
65535;SDS011;52145;49.342;9.116;2023-06-22T01:27:32;8.32;;;6.03;;
65535;SDS011;52145;49.342;9.116;2023-06-22T01:29:58;10.65;;;6.32;;
65535;SDS011;52145;49.342;9.116;2023-06-22T01:32:30;9.32;;;5.93;;
65535;SDS011;52145;49.342;9.116;2023-06-22T01:34:57;9.43;;;6.28;;
65535;SDS011;52145;49.342;9.116;2023-06-22T01:37:24;11.25;;;6.22;;
65535;SDS011;52145;49.342;9.116;2023-06-22T01:39:50;9.23;;;5.90;;
65535;SDS011;52145;49.342;9.116;2023-06-22T01:42:16;8.07;;;6.35;;
65535;SDS011;52145;49.342;9.116;2023-06-22T01:44:42;11.43;;;6.35;;
65535;SDS011;52145;49.342;9.116;2023-06-22T01:47:09;10.05;;;5.47;;
65535;SDS011;52145;49.342;9.116;2023-06-22T01:49:35;10.25;;;6.72;;
65535;SDS011;52145;49.342;9.116;2023-06-22T01:52:01;10.48;;;6.55;;
65535;SDS011;52145;49.342;9.116;2023-06-22T01:54:29;9.68;;;6.60;;
65535;SDS011;52145;49.342;9.116;2023-06-22T01:56:55;9.82;;;6.47;;
65535;SDS011;52145;49.342;9.116;2023-06-22T01:59:25;11.15;;;6.35;;
65535;SDS011;52145;49.342;9.116;2023-06-22T02:01:57;13.43;;;6.90;;
65535;SDS011;52145;49.342;9.116;2023-06-22T02:04:27;10.20;;;6.78;;
65535;SDS011;52145;49.342;9.116;2023-06-22T02:06:56;11.88;;;7.13;;
65535;SDS011;52145;49.342;9.116;2023-06-22T02:09:24;10.65;;;6.35;;
65535;SDS011;52145;49.342;9.116;2023-06-22T02:11:52;10.52;;;7.13;;
65535;SDS011;52145;49.342;9.116;2023-06-22T02:14:20;9.88;;;6.65;;
65535;SDS011;52145;49.342;9.116;2023-06-22T02:16:47;10.85;;;6.47;;
65535;SDS011;52145;49.342;9.116;2023-06-22T02:19:12;9.82;;;7.60;;
65535;SDS011;52145;49.342;9.116;2023-06-22T02:21:43;10.50;;;6.95;;
65535;SDS011;52145;49.342;9.116;2023-06-22T02:24:09;14.55;;;8.02;;
65535;SDS011;52145;49.342;9.116;2023-06-22T02:26:35;11.40;;;8.05;;
65535;SDS011;52145;49.342;9.116;2023-06-22T02:29:03;10.15;;;7.22;;
65535;SDS011;52145;49.342;9.116;2023-06-22T02:31:29;11.65;;;7.28;;
65535;SDS011;52145;49.342;9.116;2023-06-22T02:33:58;11.30;;;7.20;;
65535;SDS011;52145;49.342;9.116;2023-06-22T02:36:25;12.75;;;7.53;;
65535;SDS011;52145;49.342;9.116;2023-06-22T02:38:52;13.10;;;7.45;;
65535;SDS011;52145;49.342;9.116;2023-06-22T02:41:19;10.52;;;7.38;;
65535;SDS011;52145;49.342;9.116;2023-06-22T02:43:45;12.40;;;7.28;;
65535;SDS011;52145;49.342;9.116;2023-06-22T02:46:12;11.02;;;7.00;;
65535;SDS011;52145;49.342;9.116;2023-06-22T02:48:41;12.07;;;8.00;;
65535;SDS011;52145;49.342;9.116;2023-06-22T02:51:07;12.30;;;7.75;;
65535;SDS011;52145;49.342;9.116;2023-06-22T02:53:33;10.35;;;7.80;;
65535;SDS011;52145;49.342;9.116;2023-06-22T02:56:00;12.50;;;8.13;;
65535;SDS011;52145;49.342;9.116;2023-06-22T02:58:26;10.95;;;7.15;;
65535;SDS011;52145;49.342;9.116;2023-06-22T03:00:52;9.07;;;7.45;;
65535;SDS011;52145;49.342;9.116;2023-06-22T03:03:18;11.15;;;8.05;;
65535;SDS011;52145;49.342;9.116;2023-06-22T03:05:44;9.23;;;6.57;;
65535;SDS011;52145;49.342;9.116;2023-06-22T03:08:10;10.05;;;7.47;;
65535;SDS011;52145;49.342;9.116;2023-06-22T03:10:36;11.65;;;7.82;;
65535;SDS011;52145;49.342;9.116;2023-06-22T03:13:02;10.88;;;8.32;;
65535;SDS011;52145;49.342;9.116;2023-06-22T03:15:28;10.93;;;7.22;;
65535;SDS011;52145;49.342;9.116;2023-06-22T03:17:56;10.20;;;7.50;;
65535;SDS011;52145;49.342;9.116;2023-06-22T03:20:22;11.00;;;7.57;;
65535;SDS011;52145;49.342;9.116;2023-06-22T03:22:48;10.38;;;8.02;;
65535;SDS011;52145;49.342;9.116;2023-06-22T03:25:14;10.23;;;7.63;;
65535;SDS011;52145;49.342;9.116;2023-06-22T03:27:40;10.85;;;7.60;;
65535;SDS011;52145;49.342;9.116;2023-06-22T03:30:07;11.93;;;7.80;;
65535;SDS011;52145;49.342;9.116;2023-06-22T03:32:33;12.18;;;7.60;;
65535;SDS011;52145;49.342;9.116;2023-06-22T03:34:59;14.02;;;8.27;;
65535;SDS011;52145;49.342;9.116;2023-06-22T03:37:25;10.77;;;7.60;;
65535;SDS011;52145;49.342;9.116;2023-06-22T03:39:52;9.65;;;7.03;;
65535;SDS011;52145;49.342;9.116;2023-06-22T03:42:18;9.45;;;6.85;;
65535;SDS011;52145;49.342;9.116;2023-06-22T03:44:44;10.40;;;7.60;;
65535;SDS011;52145;49.342;9.116;2023-06-22T03:47:10;9.95;;;7.47;;
65535;SDS011;52145;49.342;9.116;2023-06-22T03:49:36;10.98;;;7.90;;
65535;SDS011;52145;49.342;9.116;2023-06-22T03:52:02;12.60;;;8.10;;
65535;SDS011;52145;49.342;9.116;2023-06-22T03:54:29;12.82;;;8.10;;
65535;SDS011;52145;49.342;9.116;2023-06-22T03:56:56;12.77;;;7.90;;
65535;SDS011;52145;49.342;9.116;2023-06-22T03:59:22;12.75;;;8.18;;
65535;SDS011;52145;49.342;9.116;2023-06-22T04:01:47;10.60;;;8.32;;
65535;SDS011;52145;49.342;9.116;2023-06-22T04:04:14;10.27;;;7.90;;
65535;SDS011;52145;49.342;9.116;2023-06-22T04:06:40;10.40;;;7.90;;
65535;SDS011;52145;49.342;9.116;2023-06-22T04:09:06;12.40;;;8.05;;
65535;SDS011;52145;49.342;9.116;2023-06-22T04:11:32;9.68;;;8.38;;
65535;SDS011;52145;49.342;9.116;2023-06-22T04:13:58;11.35;;;7.53;;
65535;SDS011;52145;49.342;9.116;2023-06-22T04:16:24;13.18;;;8.05;;
65535;SDS011;52145;49.342;9.116;2023-06-22T04:18:50;9.27;;;7.47;;
65535;SDS011;52145;49.342;9.116;2023-06-22T04:21:16;11.43;;;8.23;;
65535;SDS011;52145;49.342;9.116;2023-06-22T04:23:42;10.98;;;8.00;;
65535;SDS011;52145;49.342;9.116;2023-06-22T04:26:08;10.43;;;8.15;;
65535;SDS011;52145;49.342;9.116;2023-06-22T04:28:34;11.25;;;7.88;;
65535;SDS011;52145;49.342;9.116;2023-06-22T04:31:01;13.80;;;8.05;;
65535;SDS011;52145;49.342;9.116;2023-06-22T04:33:27;17.95;;;9.27;;
65535;SDS011;52145;49.342;9.116;2023-06-22T04:35:57;12.93;;;7.82;;
65535;SDS011;52145;49.342;9.116;2023-06-22T04:38:23;12.05;;;8.10;;
65535;SDS011;52145;49.342;9.116;2023-06-22T04:40:49;13.80;;;8.35;;
65535;SDS011;52145;49.342;9.116;2023-06-22T04:43:15;10.05;;;7.78;;
65535;SDS011;52145;49.342;9.116;2023-06-22T04:45:41;13.48;;;8.20;;
65535;SDS011;52145;49.342;9.116;2023-06-22T04:48:07;9.30;;;7.05;;
65535;SDS011;52145;49.342;9.116;2023-06-22T04:50:36;9.88;;;7.80;;
65535;SDS011;52145;49.342;9.116;2023-06-22T04:53:03;11.00;;;8.23;;
65535;SDS011;52145;49.342;9.116;2023-06-22T04:55:31;10.70;;;7.68;;
65535;SDS011;52145;49.342;9.116;2023-06-22T04:57:57;8.90;;;7.13;;
65535;SDS011;52145;49.342;9.116;2023-06-22T05:00:29;12.35;;;8.55;;
65535;SDS011;52145;49.342;9.116;2023-06-22T05:02:55;11.18;;;7.57;;
65535;SDS011;52145;49.342;9.116;2023-06-22T05:05:22;11.95;;;7.55;;
65535;SDS011;52145;49.342;9.116;2023-06-22T05:07:49;11.20;;;7.55;;
65535;SDS011;52145;49.342;9.116;2023-06-22T05:10:17;10.60;;;7.47;;
65535;SDS011;52145;49.342;9.116;2023-06-22T05:12:44;15.88;;;8.40;;
65535;SDS011;52145;49.342;9.116;2023-06-22T05:15:10;14.50;;;7.57;;
65535;SDS011;52145;49.342;9.116;2023-06-22T05:17:36;11.95;;;7.18;;
65535;SDS011;52145;49.342;9.116;2023-06-22T05:20:07;9.60;;;7.60;;
65535;SDS011;52145;49.342;9.116;2023-06-22T05:22:34;11.55;;;7.65;;
65535;SDS011;52145;49.342;9.116;2023-06-22T05:25:00;13.73;;;7.82;;
65535;SDS011;52145;49.342;9.116;2023-06-22T05:27:25;10.23;;;7.55;;
65535;SDS011;52145;49.342;9.116;2023-06-22T05:29:51;12.45;;;7.72;;
65535;SDS011;52145;49.342;9.116;2023-06-22T05:32:17;10.35;;;8.13;;
65535;SDS011;52145;49.342;9.116;2023-06-22T05:34:43;13.23;;;8.73;;
65535;SDS011;52145;49.342;9.116;2023-06-22T05:37:09;15.05;;;7.63;;
65535;SDS011;52145;49.342;9.116;2023-06-22T05:39:36;11.25;;;7.90;;
65535;SDS011;52145;49.342;9.116;2023-06-22T05:42:05;12.88;;;8.45;;
65535;SDS011;52145;49.342;9.116;2023-06-22T05:44:31;11.27;;;8.32;;
65535;SDS011;52145;49.342;9.116;2023-06-22T05:46:58;16.23;;;8.50;;
65535;SDS011;52145;49.342;9.116;2023-06-22T05:49:24;13.80;;;8.77;;
65535;SDS011;52145;49.342;9.116;2023-06-22T05:51:54;10.98;;;7.97;;
65535;SDS011;52145;49.342;9.116;2023-06-22T05:54:20;9.68;;;7.53;;
65535;SDS011;52145;49.342;9.116;2023-06-22T05:56:46;12.75;;;8.93;;
65535;SDS011;52145;49.342;9.116;2023-06-22T05:59:12;10.63;;;7.75;;
65535;SDS011;52145;49.342;9.116;2023-06-22T06:01:38;13.45;;;8.73;;
65535;SDS011;52145;49.342;9.116;2023-06-22T06:04:05;11.40;;;7.97;;
65535;SDS011;52145;49.342;9.116;2023-06-22T06:06:34;11.25;;;8.40;;
65535;SDS011;52145;49.342;9.116;2023-06-22T06:09:02;10.65;;;8.13;;
65535;SDS011;52145;49.342;9.116;2023-06-22T06:11:28;11.52;;;7.80;;
65535;SDS011;52145;49.342;9.116;2023-06-22T06:13:54;15.23;;;8.80;;
65535;SDS011;52145;49.342;9.116;2023-06-22T06:16:21;10.60;;;7.20;;
65535;SDS011;52145;49.342;9.116;2023-06-22T06:18:47;12.38;;;8.07;;
65535;SDS011;52145;49.342;9.116;2023-06-22T06:21:15;11.38;;;7.75;;
65535;SDS011;52145;49.342;9.116;2023-06-22T06:23:41;11.65;;;7.25;;
65535;SDS011;52145;49.342;9.116;2023-06-22T06:26:07;10.35;;;7.80;;
65535;SDS011;52145;49.342;9.116;2023-06-22T06:28:34;14.23;;;8.35;;
65535;SDS011;52145;49.342;9.116;2023-06-22T06:31:00;11.80;;;8.40;;
65535;SDS011;52145;49.342;9.116;2023-06-22T06:33:26;13.55;;;8.02;;
65535;SDS011;52145;49.342;9.116;2023-06-22T06:35:52;10.40;;;7.05;;
65535;SDS011;52145;49.342;9.116;2023-06-22T06:38:20;12.00;;;7.68;;
65535;SDS011;52145;49.342;9.116;2023-06-22T06:40:46;9.85;;;7.30;;
65535;SDS011;52145;49.342;9.116;2023-06-22T06:43:13;15.23;;;9.15;;
65535;SDS011;52145;49.342;9.116;2023-06-22T06:45:39;12.55;;;8.23;;
65535;SDS011;52145;49.342;9.116;2023-06-22T06:48:05;11.93;;;7.03;;
65535;SDS011;52145;49.342;9.116;2023-06-22T06:50:31;11.02;;;7.22;;
65535;SDS011;52145;49.342;9.116;2023-06-22T06:52:58;10.27;;;7.28;;
65535;SDS011;52145;49.342;9.116;2023-06-22T06:55:24;11.80;;;7.55;;
65535;SDS011;52145;49.342;9.116;2023-06-22T06:57:50;8.23;;;6.50;;
65535;SDS011;52145;49.342;9.116;2023-06-22T07:00:17;13.10;;;7.05;;
65535;SDS011;52145;49.342;9.116;2023-06-22T07:02:44;8.35;;;6.70;;
65535;SDS011;52145;49.342;9.116;2023-06-22T07:05:11;10.40;;;6.57;;
65535;SDS011;52145;49.342;9.116;2023-06-22T07:07:37;12.15;;;7.50;;
65535;SDS011;52145;49.342;9.116;2023-06-22T07:10:04;12.98;;;7.32;;
65535;SDS011;52145;49.342;9.116;2023-06-22T07:12:31;10.88;;;7.13;;
65535;SDS011;52145;49.342;9.116;2023-06-22T07:15:03;11.15;;;6.82;;
65535;SDS011;52145;49.342;9.116;2023-06-22T07:17:30;11.48;;;7.55;;
65535;SDS011;52145;49.342;9.116;2023-06-22T07:19:56;11.80;;;7.22;;
65535;SDS011;52145;49.342;9.116;2023-06-22T07:22:22;10.27;;;6.72;;
65535;SDS011;52145;49.342;9.116;2023-06-22T07:24:47;8.60;;;6.05;;
65535;SDS011;52145;49.342;9.116;2023-06-22T07:27:14;9.20;;;6.63;;
65535;SDS011;52145;49.342;9.116;2023-06-22T07:29:43;12.45;;;7.10;;
65535;SDS011;52145;49.342;9.116;2023-06-22T07:32:09;11.35;;;6.72;;
65535;SDS011;52145;49.342;9.116;2023-06-22T07:34:35;11.68;;;6.88;;
65535;SDS011;52145;49.342;9.116;2023-06-22T07:37:01;10.88;;;6.60;;
65535;SDS011;52145;49.342;9.116;2023-06-22T07:39:29;7.88;;;5.95;;
65535;SDS011;52145;49.342;9.116;2023-06-22T07:41:55;8.40;;;6.25;;
65535;SDS011;52145;49.342;9.116;2023-06-22T07:44:21;8.73;;;6.60;;
65535;SDS011;52145;49.342;9.116;2023-06-22T07:46:47;9.30;;;6.15;;
65535;SDS011;52145;49.342;9.116;2023-06-22T07:49:13;11.40;;;5.88;;
65535;SDS011;52145;49.342;9.116;2023-06-22T07:51:39;9.98;;;6.82;;
65535;SDS011;52145;49.342;9.116;2023-06-22T07:54:05;10.07;;;6.45;;
65535;SDS011;52145;49.342;9.116;2023-06-22T07:56:31;12.68;;;5.85;;
65535;SDS011;52145;49.342;9.116;2023-06-22T07:58:58;11.13;;;6.78;;
65535;SDS011;52145;49.342;9.116;2023-06-22T08:01:25;10.02;;;6.60;;
65535;SDS011;52145;49.342;9.116;2023-06-22T08:03:51;8.80;;;5.38;;
65535;SDS011;52145;49.342;9.116;2023-06-22T08:06:17;11.38;;;6.13;;
65535;SDS011;52145;49.342;9.116;2023-06-22T08:08:43;13.93;;;6.82;;
65535;SDS011;52145;49.342;9.116;2023-06-22T08:11:12;13.18;;;6.70;;
65535;SDS011;52145;49.342;9.116;2023-06-22T08:13:38;9.68;;;5.93;;
65535;SDS011;52145;49.342;9.116;2023-06-22T08:16:04;9.02;;;6.53;;
65535;SDS011;52145;49.342;9.116;2023-06-22T08:18:32;10.52;;;5.82;;
65535;SDS011;52145;49.342;9.116;2023-06-22T08:20:58;27.35;;;20.65;;
65535;SDS011;52145;49.342;9.116;2023-06-22T08:23:24;18.33;;;6.40;;
65535;SDS011;52145;49.342;9.116;2023-06-22T08:25:50;9.07;;;6.22;;
65535;SDS011;52145;49.342;9.116;2023-06-22T08:28:16;9.57;;;5.75;;
65535;SDS011;52145;49.342;9.116;2023-06-22T08:30:42;9.63;;;5.97;;
65535;SDS011;52145;49.342;9.116;2023-06-22T08:33:08;11.95;;;5.85;;
65535;SDS011;52145;49.342;9.116;2023-06-22T08:35:34;8.77;;;5.15;;
65535;SDS011;52145;49.342;9.116;2023-06-22T08:38:00;11.63;;;6.95;;
65535;SDS011;52145;49.342;9.116;2023-06-22T08:40:27;10.30;;;6.13;;
65535;SDS011;52145;49.342;9.116;2023-06-22T08:42:54;8.18;;;6.03;;
65535;SDS011;52145;49.342;9.116;2023-06-22T08:45:20;8.98;;;5.30;;
65535;SDS011;52145;49.342;9.116;2023-06-22T08:47:46;12.38;;;7.25;;
65535;SDS011;52145;49.342;9.116;2023-06-22T08:50:12;10.85;;;5.70;;
65535;SDS011;52145;49.342;9.116;2023-06-22T08:52:38;9.02;;;5.50;;
65535;SDS011;52145;49.342;9.116;2023-06-22T08:55:08;9.52;;;5.65;;
65535;SDS011;52145;49.342;9.116;2023-06-22T08:57:34;10.38;;;5.97;;
65535;SDS011;52145;49.342;9.116;2023-06-22T09:00:02;8.95;;;5.70;;
65535;SDS011;52145;49.342;9.116;2023-06-22T09:02:30;8.15;;;5.50;;
65535;SDS011;52145;49.342;9.116;2023-06-22T09:04:56;14.65;;;6.35;;
65535;SDS011;52145;49.342;9.116;2023-06-22T09:07:23;9.07;;;5.40;;
65535;SDS011;52145;49.342;9.116;2023-06-22T09:09:50;7.13;;;5.30;;
65535;SDS011;52145;49.342;9.116;2023-06-22T09:12:16;9.70;;;5.00;;
65535;SDS011;52145;49.342;9.116;2023-06-22T09:14:42;7.15;;;4.57;;
65535;SDS011;52145;49.342;9.116;2023-06-22T09:17:08;9.05;;;4.63;;
65535;SDS011;52145;49.342;9.116;2023-06-22T09:19:34;13.27;;;5.47;;
65535;SDS011;52145;49.342;9.116;2023-06-22T09:22:00;9.38;;;4.50;;
65535;SDS011;52145;49.342;9.116;2023-06-22T09:24:26;7.28;;;5.00;;
65535;SDS011;52145;49.342;9.116;2023-06-22T09:26:52;8.30;;;5.28;;
65535;SDS011;52145;49.342;9.116;2023-06-22T09:29:18;8.88;;;4.85;;
65535;SDS011;52145;49.342;9.116;2023-06-22T09:31:44;10.02;;;4.75;;
65535;SDS011;52145;49.342;9.116;2023-06-22T09:34:10;9.02;;;4.70;;
65535;SDS011;52145;49.342;9.116;2023-06-22T09:36:36;11.68;;;5.20;;
65535;SDS011;52145;49.342;9.116;2023-06-22T09:39:04;11.68;;;5.38;;
65535;SDS011;52145;49.342;9.116;2023-06-22T09:41:31;10.80;;;4.22;;
65535;SDS011;52145;49.342;9.116;2023-06-22T09:43:57;9.68;;;4.85;;
65535;SDS011;52145;49.342;9.116;2023-06-22T09:46:23;10.30;;;5.80;;
65535;SDS011;52145;49.342;9.116;2023-06-22T09:48:53;12.95;;;5.13;;
65535;SDS011;52145;49.342;9.116;2023-06-22T09:51:19;11.73;;;5.13;;
65535;SDS011;52145;49.342;9.116;2023-06-22T09:53:46;19.60;;;5.35;;
65535;SDS011;52145;49.342;9.116;2023-06-22T09:56:12;9.80;;;4.50;;
65535;SDS011;52145;49.342;9.116;2023-06-22T09:58:43;18.33;;;4.70;;
65535;SDS011;52145;49.342;9.116;2023-06-22T10:01:10;8.73;;;4.57;;
65535;SDS011;52145;49.342;9.116;2023-06-22T10:03:36;8.52;;;4.78;;
65535;SDS011;52145;49.342;9.116;2023-06-22T10:06:02;11.00;;;4.65;;
65535;SDS011;52145;49.342;9.116;2023-06-22T10:08:28;9.90;;;5.15;;
65535;SDS011;52145;49.342;9.116;2023-06-22T10:10:54;11.07;;;4.90;;
65535;SDS011;52145;49.342;9.116;2023-06-22T10:13:20;10.35;;;4.50;;
65535;SDS011;52145;49.342;9.116;2023-06-22T10:15:46;9.35;;;4.28;;
65535;SDS011;52145;49.342;9.116;2023-06-22T10:18:16;9.18;;;4.57;;
65535;SDS011;52145;49.342;9.116;2023-06-22T10:20:42;8.23;;;4.18;;
65535;SDS011;52145;49.342;9.116;2023-06-22T10:23:08;10.82;;;4.50;;
65535;SDS011;52145;49.342;9.116;2023-06-22T10:25:34;10.10;;;4.95;;
65535;SDS011;52145;49.342;9.116;2023-06-22T10:28:00;8.98;;;4.97;;
65535;SDS011;52145;49.342;9.116;2023-06-22T10:30:25;10.85;;;5.03;;
65535;SDS011;52145;49.342;9.116;2023-06-22T10:32:52;9.57;;;4.82;;
65535;SDS011;52145;49.342;9.116;2023-06-22T10:35:18;11.85;;;4.68;;
65535;SDS011;52145;49.342;9.116;2023-06-22T10:37:44;9.82;;;4.63;;
65535;SDS011;52145;49.342;9.116;2023-06-22T10:40:11;7.85;;;4.65;;
65535;SDS011;52145;49.342;9.116;2023-06-22T10:42:37;9.57;;;4.78;;
65535;SDS011;52145;49.342;9.116;2023-06-22T10:45:03;12.52;;;5.32;;
65535;SDS011;52145;49.342;9.116;2023-06-22T10:47:29;12.20;;;4.80;;
65535;SDS011;52145;49.342;9.116;2023-06-22T10:49:55;10.07;;;5.05;;
65535;SDS011;52145;49.342;9.116;2023-06-22T10:52:21;8.23;;;4.78;;
65535;SDS011;52145;49.342;9.116;2023-06-22T10:54:47;9.80;;;4.75;;
65535;SDS011;52145;49.342;9.116;2023-06-22T10:57:13;10.15;;;5.05;;
65535;SDS011;52145;49.342;9.116;2023-06-22T10:59:39;8.30;;;4.70;;
65535;SDS011;52145;49.342;9.116;2023-06-22T11:02:05;10.13;;;4.70;;
65535;SDS011;52145;49.342;9.116;2023-06-22T11:04:31;11.80;;;6.35;;
65535;SDS011;52145;49.342;9.116;2023-06-22T11:06:57;8.75;;;4.35;;
65535;SDS011;52145;49.342;9.116;2023-06-22T11:09:23;10.38;;;5.88;;
65535;SDS011;52145;49.342;9.116;2023-06-22T11:11:50;10.68;;;5.30;;
65535;SDS011;52145;49.342;9.116;2023-06-22T11:14:19;9.93;;;4.90;;
65535;SDS011;52145;49.342;9.116;2023-06-22T11:16:46;13.38;;;5.43;;
65535;SDS011;52145;49.342;9.116;2023-06-22T11:19:12;14.00;;;6.53;;
65535;SDS011;52145;49.342;9.116;2023-06-22T11:21:38;11.18;;;4.78;;
65535;SDS011;52145;49.342;9.116;2023-06-22T11:24:04;12.70;;;5.75;;
65535;SDS011;52145;49.342;9.116;2023-06-22T11:26:30;15.38;;;6.07;;
65535;SDS011;52145;49.342;9.116;2023-06-22T11:29:00;14.55;;;6.28;;
65535;SDS011;52145;49.342;9.116;2023-06-22T11:31:26;10.48;;;5.93;;
65535;SDS011;52145;49.342;9.116;2023-06-22T11:33:52;11.25;;;5.18;;
65535;SDS011;52145;49.342;9.116;2023-06-22T11:36:18;10.32;;;5.22;;
65535;SDS011;52145;49.342;9.116;2023-06-22T11:38:44;8.52;;;5.15;;
65535;SDS011;52145;49.342;9.116;2023-06-22T11:41:10;12.88;;;4.65;;
65535;SDS011;52145;49.342;9.116;2023-06-22T11:43:36;8.40;;;4.65;;
65535;SDS011;52145;49.342;9.116;2023-06-22T11:46:02;10.93;;;4.72;;
65535;SDS011;52145;49.342;9.116;2023-06-22T11:48:28;9.40;;;4.75;;
65535;SDS011;52145;49.342;9.116;2023-06-22T11:50:54;12.10;;;5.10;;
65535;SDS011;52145;49.342;9.116;2023-06-22T11:53:21;12.85;;;5.45;;
65535;SDS011;52145;49.342;9.116;2023-06-22T11:55:47;11.27;;;4.78;;
65535;SDS011;52145;49.342;9.116;2023-06-22T11:58:14;10.27;;;5.45;;
65535;SDS011;52145;49.342;9.116;2023-06-22T12:00:40;14.98;;;5.55;;
65535;SDS011;52145;49.342;9.116;2023-06-22T12:03:06;9.57;;;5.32;;
65535;SDS011;52145;49.342;9.116;2023-06-22T12:05:32;14.60;;;6.05;;
65535;SDS011;52145;49.342;9.116;2023-06-22T12:07:58;10.02;;;5.97;;
65535;SDS011;52145;49.342;9.116;2023-06-22T12:10:27;10.77;;;5.97;;
65535;SDS011;52145;49.342;9.116;2023-06-22T12:12:53;19.65;;;5.28;;
65535;SDS011;52145;49.342;9.116;2023-06-22T12:15:20;10.48;;;5.15;;
65535;SDS011;52145;49.342;9.116;2023-06-22T12:17:46;9.52;;;4.85;;
65535;SDS011;52145;49.342;9.116;2023-06-22T12:20:13;18.00;;;5.03;;
65535;SDS011;52145;49.342;9.116;2023-06-22T12:22:40;12.85;;;5.65;;
65535;SDS011;52145;49.342;9.116;2023-06-22T12:25:06;12.32;;;4.95;;
65535;SDS011;52145;49.342;9.116;2023-06-22T12:27:33;7.43;;;4.78;;
65535;SDS011;52145;49.342;9.116;2023-06-22T12:29:59;8.18;;;4.50;;
65535;SDS011;52145;49.342;9.116;2023-06-22T12:32:24;13.77;;;5.75;;
65535;SDS011;52145;49.342;9.116;2023-06-22T12:34:51;10.20;;;5.00;;
65535;SDS011;52145;49.342;9.116;2023-06-22T12:37:17;11.80;;;4.65;;
65535;SDS011;52145;49.342;9.116;2023-06-22T12:39:43;14.27;;;5.97;;
65535;SDS011;52145;49.342;9.116;2023-06-22T12:42:09;12.85;;;6.00;;
65535;SDS011;52145;49.342;9.116;2023-06-22T12:44:37;8.13;;;5.22;;
65535;SDS011;52145;49.342;9.116;2023-06-22T12:47:03;8.02;;;5.28;;
65535;SDS011;52145;49.342;9.116;2023-06-22T12:49:29;10.02;;;5.45;;
65535;SDS011;52145;49.342;9.116;2023-06-22T12:51:55;11.00;;;5.32;;
65535;SDS011;52145;49.342;9.116;2023-06-22T12:54:21;11.20;;;5.35;;
65535;SDS011;52145;49.342;9.116;2023-06-22T12:56:47;11.55;;;4.95;;
65535;SDS011;52145;49.342;9.116;2023-06-22T12:59:13;11.38;;;6.10;;
65535;SDS011;52145;49.342;9.116;2023-06-22T13:01:39;9.95;;;5.47;;
65535;SDS011;52145;49.342;9.116;2023-06-22T13:04:05;14.02;;;5.35;;
65535;SDS011;52145;49.342;9.116;2023-06-22T13:06:31;14.60;;;5.55;;
65535;SDS011;52145;49.342;9.116;2023-06-22T13:08:57;13.95;;;6.45;;
65535;SDS011;52145;49.342;9.116;2023-06-22T13:11:23;11.68;;;5.30;;
65535;SDS011;52145;49.342;9.116;2023-06-22T13:13:49;16.48;;;5.45;;
65535;SDS011;52145;49.342;9.116;2023-06-22T13:16:15;9.43;;;5.07;;
65535;SDS011;52145;49.342;9.116;2023-06-22T13:18:41;12.02;;;5.47;;
65535;SDS011;52145;49.342;9.116;2023-06-22T13:21:07;10.00;;;4.80;;
65535;SDS011;52145;49.342;9.116;2023-06-22T13:23:33;15.05;;;5.20;;
65535;SDS011;52145;49.342;9.116;2023-06-22T13:25:59;11.38;;;5.00;;
65535;SDS011;52145;49.342;9.116;2023-06-22T13:28:25;14.32;;;4.93;;
65535;SDS011;52145;49.342;9.116;2023-06-22T13:30:51;14.93;;;4.85;;
65535;SDS011;52145;49.342;9.116;2023-06-22T13:33:17;15.02;;;4.95;;
65535;SDS011;52145;49.342;9.116;2023-06-22T13:35:43;13.35;;;4.78;;
65535;SDS011;52145;49.342;9.116;2023-06-22T13:38:09;11.20;;;5.50;;
65535;SDS011;52145;49.342;9.116;2023-06-22T13:40:35;12.10;;;5.82;;
65535;SDS011;52145;49.342;9.116;2023-06-22T13:43:02;12.10;;;5.45;;
65535;SDS011;52145;49.342;9.116;2023-06-22T13:45:28;12.63;;;5.57;;
65535;SDS011;52145;49.342;9.116;2023-06-22T13:47:54;9.65;;;5.68;;
65535;SDS011;52145;49.342;9.116;2023-06-22T13:50:20;11.55;;;5.05;;
65535;SDS011;52145;49.342;9.116;2023-06-22T13:52:46;12.35;;;4.93;;
65535;SDS011;52145;49.342;9.116;2023-06-22T13:55:12;10.88;;;4.70;;
65535;SDS011;52145;49.342;9.116;2023-06-22T13:57:39;11.93;;;4.88;;
65535;SDS011;52145;49.342;9.116;2023-06-22T14:00:05;10.85;;;5.47;;
65535;SDS011;52145;49.342;9.116;2023-06-22T14:02:31;9.68;;;4.63;;
65535;SDS011;52145;49.342;9.116;2023-06-22T14:04:57;10.07;;;4.82;;
65535;SDS011;52145;49.342;9.116;2023-06-22T14:07:23;11.82;;;5.60;;
65535;SDS011;52145;49.342;9.116;2023-06-22T14:09:49;14.50;;;5.05;;
65535;SDS011;52145;49.342;9.116;2023-06-22T14:12:15;12.43;;;5.97;;
65535;SDS011;52145;49.342;9.116;2023-06-22T14:14:43;13.45;;;5.45;;
65535;SDS011;52145;49.342;9.116;2023-06-22T14:17:09;10.70;;;5.72;;
65535;SDS011;52145;49.342;9.116;2023-06-22T14:19:35;8.15;;;4.93;;
65535;SDS011;52145;49.342;9.116;2023-06-22T14:22:01;9.80;;;5.90;;
65535;SDS011;52145;49.342;9.116;2023-06-22T14:24:27;11.80;;;5.10;;
65535;SDS011;52145;49.342;9.116;2023-06-22T14:26:54;10.38;;;5.47;;
65535;SDS011;52145;49.342;9.116;2023-06-22T14:29:20;10.80;;;5.03;;
65535;SDS011;52145;49.342;9.116;2023-06-22T14:31:46;10.93;;;5.55;;
65535;SDS011;52145;49.342;9.116;2023-06-22T14:34:12;14.52;;;5.82;;